sensor_id;sensor_type;location;lat;lon;timestamp;P1;durP1;ratioP1;P2;durP2;ratioP2
42036;SDS011;30340;52.004;5.908;2023-08-12T00:01:23;8.65;;;4.65;;
42036;SDS011;30340;52.004;5.908;2023-08-12T00:03:50;6.95;;;5.35;;
42036;SDS011;30340;52.004;5.908;2023-08-12T00:06:16;9.85;;;5.30;;
42036;SDS011;30340;52.004;5.908;2023-08-12T00:08:41;8.13;;;4.65;;
42036;SDS011;30340;52.004;5.908;2023-08-12T00:11:07;6.43;;;4.60;;
42036;SDS011;30340;52.004;5.908;2023-08-12T00:13:33;7.60;;;4.40;;
42036;SDS011;30340;52.004;5.908;2023-08-12T00:15:58;8.05;;;4.80;;
42036;SDS011;30340;52.004;5.908;2023-08-12T00:18:24;5.65;;;3.85;;
42036;SDS011;30340;52.004;5.908;2023-08-12T00:20:50;5.72;;;3.85;;
42036;SDS011;30340;52.004;5.908;2023-08-12T00:23:16;9.45;;;4.75;;
42036;SDS011;30340;52.004;5.908;2023-08-12T00:25:41;7.45;;;4.32;;
42036;SDS011;30340;52.004;5.908;2023-08-12T00:28:07;8.32;;;5.13;;
42036;SDS011;30340;52.004;5.908;2023-08-12T00:30:33;5.70;;;4.15;;
42036;SDS011;30340;52.004;5.908;2023-08-12T00:32:58;6.32;;;4.05;;
42036;SDS011;30340;52.004;5.908;2023-08-12T00:35:24;8.20;;;5.63;;
42036;SDS011;30340;52.004;5.908;2023-08-12T00:37:49;7.20;;;4.55;;
42036;SDS011;30340;52.004;5.908;2023-08-12T00:40:15;6.30;;;4.38;;
42036;SDS011;30340;52.004;5.908;2023-08-12T00:42:40;6.30;;;4.07;;
42036;SDS011;30340;52.004;5.908;2023-08-12T00:45:09;6.07;;;4.22;;
42036;SDS011;30340;52.004;5.908;2023-08-12T00:47:37;10.23;;;5.72;;
42036;SDS011;30340;52.004;5.908;2023-08-12T00:50:04;6.95;;;4.60;;
42036;SDS011;30340;52.004;5.908;2023-08-12T00:52:32;7.13;;;3.58;;
42036;SDS011;30340;52.004;5.908;2023-08-12T00:54:57;6.15;;;3.63;;
42036;SDS011;30340;52.004;5.908;2023-08-12T00:57:23;5.53;;;3.50;;
42036;SDS011;30340;52.004;5.908;2023-08-12T00:59:49;5.20;;;4.03;;
42036;SDS011;30340;52.004;5.908;2023-08-12T01:02:15;6.57;;;4.18;;
42036;SDS011;30340;52.004;5.908;2023-08-12T01:04:40;6.55;;;4.43;;
42036;SDS011;30340;52.004;5.908;2023-08-12T01:07:06;5.57;;;3.90;;
42036;SDS011;30340;52.004;5.908;2023-08-12T01:09:31;5.15;;;3.78;;
42036;SDS011;30340;52.004;5.908;2023-08-12T01:16:57;5.60;;;3.80;;
42036;SDS011;30340;52.004;5.908;2023-08-12T01:19:35;7.07;;;4.30;;
42036;SDS011;30340;52.004;5.908;2023-08-12T01:22:03;6.82;;;3.78;;
42036;SDS011;30340;52.004;5.908;2023-08-12T01:24:34;8.35;;;5.55;;
42036;SDS011;30340;52.004;5.908;2023-08-12T01:27:04;6.50;;;5.03;;
42036;SDS011;30340;52.004;5.908;2023-08-12T01:29:31;7.28;;;5.10;;
42036;SDS011;30340;52.004;5.908;2023-08-12T01:32:08;8.68;;;4.57;;
42036;SDS011;30340;52.004;5.908;2023-08-12T01:34:47;7.15;;;4.60;;
42036;SDS011;30340;52.004;5.908;2023-08-12T01:37:29;6.18;;;4.45;;
42036;SDS011;30340;52.004;5.908;2023-08-12T01:39:57;7.63;;;5.20;;
42036;SDS011;30340;52.004;5.908;2023-08-12T01:42:26;7.60;;;4.68;;
42036;SDS011;30340;52.004;5.908;2023-08-12T01:44:53;8.02;;;5.00;;
42036;SDS011;30340;52.004;5.908;2023-08-12T01:47:19;8.27;;;5.03;;
42036;SDS011;30340;52.004;5.908;2023-08-12T01:49:45;7.15;;;5.50;;
42036;SDS011;30340;52.004;5.908;2023-08-12T01:52:11;9.55;;;5.82;;
42036;SDS011;30340;52.004;5.908;2023-08-12T01:54:36;10.85;;;6.80;;
42036;SDS011;30340;52.004;5.908;2023-08-12T01:57:02;10.30;;;6.90;;
42036;SDS011;30340;52.004;5.908;2023-08-12T01:59:30;7.95;;;6.50;;
42036;SDS011;30340;52.004;5.908;2023-08-12T02:01:56;10.80;;;7.60;;
42036;SDS011;30340;52.004;5.908;2023-08-12T02:04:22;11.07;;;7.15;;
42036;SDS011;30340;52.004;5.908;2023-08-12T02:06:48;8.10;;;6.68;;
42036;SDS011;30340;52.004;5.908;2023-08-12T02:09:14;10.52;;;6.32;;
42036;SDS011;30340;52.004;5.908;2023-08-12T02:11:40;8.77;;;7.05;;
42036;SDS011;30340;52.004;5.908;2023-08-12T02:14:06;9.18;;;6.55;;
42036;SDS011;30340;52.004;5.908;2023-08-12T02:16:31;8.75;;;6.25;;
42036;SDS011;30340;52.004;5.908;2023-08-12T02:18:57;10.40;;;7.80;;
42036;SDS011;30340;52.004;5.908;2023-08-12T02:21:22;8.60;;;7.55;;
42036;SDS011;30340;52.004;5.908;2023-08-12T02:23:48;10.88;;;8.15;;
42036;SDS011;30340;52.004;5.908;2023-08-12T02:26:14;8.60;;;6.18;;
42036;SDS011;30340;52.004;5.908;2023-08-12T02:28:39;10.95;;;7.28;;
42036;SDS011;30340;52.004;5.908;2023-08-12T02:31:05;9.20;;;7.38;;
42036;SDS011;30340;52.004;5.908;2023-08-12T02:33:30;13.48;;;9.50;;
42036;SDS011;30340;52.004;5.908;2023-08-12T02:35:56;12.75;;;8.52;;
42036;SDS011;30340;52.004;5.908;2023-08-12T02:38:21;10.05;;;7.80;;
42036;SDS011;30340;52.004;5.908;2023-08-12T02:40:47;15.15;;;10.02;;
42036;SDS011;30340;52.004;5.908;2023-08-12T02:43:14;10.88;;;7.97;;
42036;SDS011;30340;52.004;5.908;2023-08-12T02:45:40;9.30;;;6.97;;
42036;SDS011;30340;52.004;5.908;2023-08-12T02:48:05;11.52;;;8.65;;
42036;SDS011;30340;52.004;5.908;2023-08-12T02:50:31;14.70;;;9.73;;
42036;SDS011;30340;52.004;5.908;2023-08-12T02:52:57;10.60;;;9.35;;
42036;SDS011;30340;52.004;5.908;2023-08-12T02:55:22;11.32;;;8.80;;
42036;SDS011;30340;52.004;5.908;2023-08-12T02:57:48;11.65;;;9.45;;
42036;SDS011;30340;52.004;5.908;2023-08-12T03:00:13;13.00;;;10.18;;
42036;SDS011;30340;52.004;5.908;2023-08-12T03:02:42;11.75;;;8.43;;
42036;SDS011;30340;52.004;5.908;2023-08-12T03:05:08;10.25;;;8.15;;
42036;SDS011;30340;52.004;5.908;2023-08-12T03:07:34;10.10;;;8.55;;
42036;SDS011;30340;52.004;5.908;2023-08-12T03:09:59;9.80;;;7.38;;
42036;SDS011;30340;52.004;5.908;2023-08-12T03:12:25;11.45;;;9.98;;
42036;SDS011;30340;52.004;5.908;2023-08-12T03:14:51;12.52;;;10.27;;
42036;SDS011;30340;52.004;5.908;2023-08-12T03:17:16;17.75;;;11.05;;
42036;SDS011;30340;52.004;5.908;2023-08-12T03:19:42;11.15;;;9.10;;
42036;SDS011;30340;52.004;5.908;2023-08-12T03:22:08;12.00;;;9.77;;
42036;SDS011;30340;52.004;5.908;2023-08-12T03:24:33;11.45;;;9.70;;
42036;SDS011;30340;52.004;5.908;2023-08-12T03:26:59;11.75;;;9.20;;
42036;SDS011;30340;52.004;5.908;2023-08-12T03:29:25;9.63;;;7.95;;
42036;SDS011;30340;52.004;5.908;2023-08-12T03:31:50;13.38;;;9.63;;
42036;SDS011;30340;52.004;5.908;2023-08-12T03:34:16;12.10;;;9.07;;
42036;SDS011;30340;52.004;5.908;2023-08-12T03:36:42;13.98;;;10.00;;
42036;SDS011;30340;52.004;5.908;2023-08-12T03:39:07;11.25;;;8.50;;
42036;SDS011;30340;52.004;5.908;2023-08-12T03:41:33;14.27;;;11.15;;
42036;SDS011;30340;52.004;5.908;2023-08-12T03:43:58;11.68;;;9.30;;
42036;SDS011;30340;52.004;5.908;2023-08-12T03:46:24;12.82;;;10.13;;
42036;SDS011;30340;52.004;5.908;2023-08-12T03:48:50;13.63;;;9.95;;
42036;SDS011;30340;52.004;5.908;2023-08-12T03:51:15;14.18;;;10.57;;
42036;SDS011;30340;52.004;5.908;2023-08-12T03:53:41;13.40;;;10.45;;
42036;SDS011;30340;52.004;5.908;2023-08-12T03:56:07;11.82;;;10.50;;
42036;SDS011;30340;52.004;5.908;2023-08-12T03:58:32;14.10;;;11.40;;
42036;SDS011;30340;52.004;5.908;2023-08-12T04:00:58;12.55;;;10.30;;
42036;SDS011;30340;52.004;5.908;2023-08-12T04:03:24;12.88;;;9.32;;
42036;SDS011;30340;52.004;5.908;2023-08-12T04:05:50;11.75;;;9.63;;
42036;SDS011;30340;52.004;5.908;2023-08-12T04:08:18;9.98;;;8.05;;
42036;SDS011;30340;52.004;5.908;2023-08-12T04:10:45;9.43;;;7.82;;
42036;SDS011;30340;52.004;5.908;2023-08-12T04:13:12;9.75;;;8.10;;
42036;SDS011;30340;52.004;5.908;2023-08-12T04:15:38;9.38;;;8.02;;
42036;SDS011;30340;52.004;5.908;2023-08-12T04:18:04;9.77;;;7.70;;
42036;SDS011;30340;52.004;5.908;2023-08-12T04:20:30;11.55;;;9.25;;
42036;SDS011;30340;52.004;5.908;2023-08-12T04:22:55;12.20;;;8.60;;
42036;SDS011;30340;52.004;5.908;2023-08-12T04:25:21;14.63;;;12.00;;
42036;SDS011;30340;52.004;5.908;2023-08-12T04:27:47;13.07;;;10.60;;
42036;SDS011;30340;52.004;5.908;2023-08-12T04:30:14;13.57;;;10.68;;
42036;SDS011;30340;52.004;5.908;2023-08-12T04:32:41;13.10;;;9.52;;
42036;SDS011;30340;52.004;5.908;2023-08-12T04:35:06;10.30;;;7.93;;
42036;SDS011;30340;52.004;5.908;2023-08-12T04:37:33;13.90;;;10.95;;
42036;SDS011;30340;52.004;5.908;2023-08-12T04:39:58;12.88;;;10.48;;
42036;SDS011;30340;52.004;5.908;2023-08-12T04:42:24;16.38;;;13.30;;
42036;SDS011;30340;52.004;5.908;2023-08-12T04:44:50;14.90;;;11.27;;
42036;SDS011;30340;52.004;5.908;2023-08-12T04:47:15;12.70;;;10.65;;
42036;SDS011;30340;52.004;5.908;2023-08-12T04:49:41;12.02;;;9.93;;
42036;SDS011;30340;52.004;5.908;2023-08-12T04:52:06;13.55;;;10.50;;
42036;SDS011;30340;52.004;5.908;2023-08-12T04:54:32;13.35;;;10.52;;
42036;SDS011;30340;52.004;5.908;2023-08-12T04:56:58;11.98;;;9.20;;
42036;SDS011;30340;52.004;5.908;2023-08-12T04:59:24;12.27;;;9.55;;
42036;SDS011;30340;52.004;5.908;2023-08-12T05:01:50;10.77;;;9.10;;
42036;SDS011;30340;52.004;5.908;2023-08-12T05:04:16;10.75;;;7.53;;
42036;SDS011;30340;52.004;5.908;2023-08-12T05:06:41;13.32;;;10.85;;
42036;SDS011;30340;52.004;5.908;2023-08-12T05:09:07;12.63;;;9.80;;
42036;SDS011;30340;52.004;5.908;2023-08-12T05:11:33;12.57;;;10.02;;
42036;SDS011;30340;52.004;5.908;2023-08-12T05:13:59;15.00;;;12.32;;
42036;SDS011;30340;52.004;5.908;2023-08-12T05:16:24;13.23;;;10.27;;
42036;SDS011;30340;52.004;5.908;2023-08-12T05:18:50;9.90;;;8.70;;
42036;SDS011;30340;52.004;5.908;2023-08-12T05:21:16;12.73;;;10.85;;
42036;SDS011;30340;52.004;5.908;2023-08-12T05:23:41;13.70;;;10.50;;
42036;SDS011;30340;52.004;5.908;2023-08-12T05:26:07;14.10;;;11.52;;
42036;SDS011;30340;52.004;5.908;2023-08-12T05:28:32;12.15;;;9.07;;
42036;SDS011;30340;52.004;5.908;2023-08-12T05:30:58;12.93;;;10.35;;
42036;SDS011;30340;52.004;5.908;2023-08-12T05:33:24;12.70;;;11.00;;
42036;SDS011;30340;52.004;5.908;2023-08-12T05:35:49;10.65;;;8.18;;
42036;SDS011;30340;52.004;5.908;2023-08-12T05:38:15;13.05;;;10.35;;
42036;SDS011;30340;52.004;5.908;2023-08-12T05:40:41;13.18;;;11.52;;
42036;SDS011;30340;52.004;5.908;2023-08-12T05:43:07;11.48;;;9.10;;
42036;SDS011;30340;52.004;5.908;2023-08-12T05:45:33;15.32;;;11.65;;
42036;SDS011;30340;52.004;5.908;2023-08-12T05:47:59;18.77;;;14.50;;
42036;SDS011;30340;52.004;5.908;2023-08-12T05:50:24;11.93;;;9.82;;
42036;SDS011;30340;52.004;5.908;2023-08-12T05:52:50;10.27;;;8.77;;
42036;SDS011;30340;52.004;5.908;2023-08-12T05:55:15;14.57;;;12.02;;
42036;SDS011;30340;52.004;5.908;2023-08-12T05:57:41;11.05;;;8.20;;
42036;SDS011;30340;52.004;5.908;2023-08-12T06:00:07;13.68;;;10.23;;
42036;SDS011;30340;52.004;5.908;2023-08-12T06:02:33;10.02;;;7.80;;
42036;SDS011;30340;52.004;5.908;2023-08-12T06:04:58;12.82;;;10.60;;
42036;SDS011;30340;52.004;5.908;2023-08-12T06:07:24;10.70;;;8.20;;
42036;SDS011;30340;52.004;5.908;2023-08-12T06:09:50;13.35;;;11.13;;
42036;SDS011;30340;52.004;5.908;2023-08-12T06:12:16;9.85;;;7.68;;
42036;SDS011;30340;52.004;5.908;2023-08-12T06:14:41;8.15;;;6.88;;
42036;SDS011;30340;52.004;5.908;2023-08-12T06:17:07;10.88;;;7.65;;
42036;SDS011;30340;52.004;5.908;2023-08-12T06:19:33;9.18;;;6.43;;
42036;SDS011;30340;52.004;5.908;2023-08-12T06:21:59;8.80;;;6.28;;
42036;SDS011;30340;52.004;5.908;2023-08-12T06:24:24;8.85;;;6.60;;
42036;SDS011;30340;52.004;5.908;2023-08-12T06:26:50;8.35;;;5.93;;
42036;SDS011;30340;52.004;5.908;2023-08-12T06:29:15;6.80;;;5.25;;
42036;SDS011;30340;52.004;5.908;2023-08-12T06:31:41;8.85;;;5.78;;
42036;SDS011;30340;52.004;5.908;2023-08-12T06:34:07;8.13;;;6.60;;
42036;SDS011;30340;52.004;5.908;2023-08-12T06:36:32;5.90;;;5.15;;
42036;SDS011;30340;52.004;5.908;2023-08-12T06:38:58;8.82;;;5.88;;
42036;SDS011;30340;52.004;5.908;2023-08-12T06:41:24;6.25;;;4.60;;
42036;SDS011;30340;52.004;5.908;2023-08-12T06:43:49;5.85;;;3.90;;
42036;SDS011;30340;52.004;5.908;2023-08-12T06:46:15;5.53;;;3.80;;
42036;SDS011;30340;52.004;5.908;2023-08-12T06:48:41;6.68;;;4.95;;
42036;SDS011;30340;52.004;5.908;2023-08-12T06:51:06;5.43;;;3.63;;
42036;SDS011;30340;52.004;5.908;2023-08-12T06:53:35;6.18;;;3.72;;
42036;SDS011;30340;52.004;5.908;2023-08-12T06:56:02;4.82;;;3.47;;
42036;SDS011;30340;52.004;5.908;2023-08-12T06:58:28;6.38;;;3.70;;
42036;SDS011;30340;52.004;5.908;2023-08-12T07:00:54;4.80;;;3.70;;
42036;SDS011;30340;52.004;5.908;2023-08-12T07:03:19;4.22;;;3.05;;
42036;SDS011;30340;52.004;5.908;2023-08-12T07:05:45;5.25;;;2.90;;
42036;SDS011;30340;52.004;5.908;2023-08-12T07:08:11;3.55;;;2.90;;
42036;SDS011;30340;52.004;5.908;2023-08-12T07:10:42;4.60;;;3.35;;
42036;SDS011;30340;52.004;5.908;2023-08-12T07:15:33;4.55;;;3.42;;
42036;SDS011;30340;52.004;5.908;2023-08-12T07:17:59;6.38;;;3.55;;
42036;SDS011;30340;52.004;5.908;2023-08-12T07:20:25;5.28;;;3.78;;
42036;SDS011;30340;52.004;5.908;2023-08-12T07:22:51;6.05;;;3.60;;
42036;SDS011;30340;52.004;5.908;2023-08-12T07:25:17;4.43;;;3.00;;
42036;SDS011;30340;52.004;5.908;2023-08-12T07:27:42;5.43;;;3.78;;
42036;SDS011;30340;52.004;5.908;2023-08-12T07:30:08;3.05;;;2.67;;
42036;SDS011;30340;52.004;5.908;2023-08-12T07:32:38;4.00;;;2.78;;
42036;SDS011;30340;52.004;5.908;2023-08-12T07:35:04;5.22;;;3.30;;
42036;SDS011;30340;52.004;5.908;2023-08-12T07:37:33;7.00;;;3.75;;
42036;SDS011;30340;52.004;5.908;2023-08-12T07:39:59;6.68;;;4.50;;
42036;SDS011;30340;52.004;5.908;2023-08-12T07:42:24;4.18;;;3.45;;
42036;SDS011;30340;52.004;5.908;2023-08-12T07:44:50;6.10;;;4.10;;
42036;SDS011;30340;52.004;5.908;2023-08-12T07:47:15;6.22;;;3.80;;
42036;SDS011;30340;52.004;5.908;2023-08-12T07:49:42;5.22;;;4.10;;
42036;SDS011;30340;52.004;5.908;2023-08-12T07:52:08;5.70;;;3.83;;
42036;SDS011;30340;52.004;5.908;2023-08-12T07:54:33;5.13;;;3.78;;
42036;SDS011;30340;52.004;5.908;2023-08-12T07:56:59;4.15;;;3.58;;
42036;SDS011;30340;52.004;5.908;2023-08-12T07:59:25;5.82;;;4.10;;
42036;SDS011;30340;52.004;5.908;2023-08-12T08:01:51;6.13;;;4.13;;
42036;SDS011;30340;52.004;5.908;2023-08-12T08:04:17;5.10;;;4.10;;
42036;SDS011;30340;52.004;5.908;2023-08-12T08:06:42;7.38;;;4.28;;
42036;SDS011;30340;52.004;5.908;2023-08-12T08:09:08;4.63;;;3.35;;
42036;SDS011;30340;52.004;5.908;2023-08-12T08:11:34;4.57;;;3.58;;
42036;SDS011;30340;52.004;5.908;2023-08-12T08:14:00;5.13;;;3.40;;
42036;SDS011;30340;52.004;5.908;2023-08-12T08:16:26;4.93;;;3.17;;
42036;SDS011;30340;52.004;5.908;2023-08-12T08:18:51;6.20;;;2.83;;
42036;SDS011;30340;52.004;5.908;2023-08-12T08:21:17;3.63;;;2.90;;
42036;SDS011;30340;52.004;5.908;2023-08-12T08:23:43;3.10;;;2.50;;
42036;SDS011;30340;52.004;5.908;2023-08-12T08:26:08;2.80;;;2.10;;
42036;SDS011;30340;52.004;5.908;2023-08-12T08:28:34;2.80;;;2.03;;
42036;SDS011;30340;52.004;5.908;2023-08-12T08:31:00;2.33;;;1.80;;
42036;SDS011;30340;52.004;5.908;2023-08-12T08:33:25;2.97;;;2.33;;
42036;SDS011;30340;52.004;5.908;2023-08-12T08:35:52;2.97;;;2.30;;
42036;SDS011;30340;52.004;5.908;2023-08-12T08:38:18;3.17;;;2.63;;
42036;SDS011;30340;52.004;5.908;2023-08-12T08:40:44;3.45;;;2.28;;
42036;SDS011;30340;52.004;5.908;2023-08-12T08:43:09;2.95;;;2.30;;
42036;SDS011;30340;52.004;5.908;2023-08-12T08:45:36;3.10;;;2.33;;
42036;SDS011;30340;52.004;5.908;2023-08-12T08:48:03;3.45;;;2.53;;
42036;SDS011;30340;52.004;5.908;2023-08-12T08:50:31;2.20;;;1.95;;
42036;SDS011;30340;52.004;5.908;2023-08-12T08:52:57;2.53;;;2.20;;
42036;SDS011;30340;52.004;5.908;2023-08-12T08:55:24;2.63;;;2.00;;
42036;SDS011;30340;52.004;5.908;2023-08-12T08:57:50;3.10;;;2.58;;
42036;SDS011;30340;52.004;5.908;2023-08-12T09:00:17;2.30;;;2.10;;
42036;SDS011;30340;52.004;5.908;2023-08-12T09:02:46;2.47;;;2.28;;
42036;SDS011;30340;52.004;5.908;2023-08-12T09:05:15;2.78;;;2.20;;
42036;SDS011;30340;52.004;5.908;2023-08-12T09:07:42;4.30;;;3.00;;
42036;SDS011;30340;52.004;5.908;2023-08-12T09:10:11;2.50;;;2.30;;
42036;SDS011;30340;52.004;5.908;2023-08-12T09:12:37;2.58;;;2.20;;
42036;SDS011;30340;52.004;5.908;2023-08-12T09:15:04;2.50;;;2.30;;
42036;SDS011;30340;52.004;5.908;2023-08-12T09:17:31;2.40;;;2.20;;
42036;SDS011;30340;52.004;5.908;2023-08-12T09:19:57;2.78;;;1.67;;
42036;SDS011;30340;52.004;5.908;2023-08-12T09:22:24;2.08;;;1.85;;
42036;SDS011;30340;52.004;5.908;2023-08-12T09:24:50;1.85;;;1.75;;
42036;SDS011;30340;52.004;5.908;2023-08-12T09:27:23;1.80;;;1.70;;
42036;SDS011;30340;52.004;5.908;2023-08-12T09:29:49;2.03;;;1.75;;
42036;SDS011;30340;52.004;5.908;2023-08-12T09:32:19;1.20;;;1.10;;
42036;SDS011;30340;52.004;5.908;2023-08-12T09:34:46;1.27;;;1.15;;
42036;SDS011;30340;52.004;5.908;2023-08-12T09:37:16;0.80;;;0.80;;
42036;SDS011;30340;52.004;5.908;2023-08-12T09:39:42;1.75;;;1.00;;
42036;SDS011;30340;52.004;5.908;2023-08-12T09:42:09;0.93;;;0.90;;
42036;SDS011;30340;52.004;5.908;2023-08-12T09:44:35;0.73;;;0.73;;
42036;SDS011;30340;52.004;5.908;2023-08-12T09:47:01;1.60;;;0.73;;
42036;SDS011;30340;52.004;5.908;2023-08-12T09:49:28;1.00;;;0.70;;
42036;SDS011;30340;52.004;5.908;2023-08-12T09:51:54;0.80;;;0.60;;
42036;SDS011;30340;52.004;5.908;2023-08-12T09:54:20;0.60;;;0.50;;
42036;SDS011;30340;52.004;5.908;2023-08-12T09:56:47;0.70;;;0.70;;
42036;SDS011;30340;52.004;5.908;2023-08-12T09:59:18;0.60;;;0.50;;
42036;SDS011;30340;52.004;5.908;2023-08-12T10:01:48;0.50;;;0.50;;
42036;SDS011;30340;52.004;5.908;2023-08-12T10:04:16;0.52;;;0.52;;
42036;SDS011;30340;52.004;5.908;2023-08-12T10:06:43;0.70;;;0.70;;
42036;SDS011;30340;52.004;5.908;2023-08-12T10:09:09;0.60;;;0.60;;
42036;SDS011;30340;52.004;5.908;2023-08-12T10:11:36;0.60;;;0.60;;
42036;SDS011;30340;52.004;5.908;2023-08-12T10:14:02;0.60;;;0.60;;
42036;SDS011;30340;52.004;5.908;2023-08-12T10:16:29;1.23;;;0.85;;
42036;SDS011;30340;52.004;5.908;2023-08-12T10:18:56;0.60;;;0.60;;
42036;SDS011;30340;52.004;5.908;2023-08-12T10:21:23;0.70;;;0.70;;
42036;SDS011;30340;52.004;5.908;2023-08-12T10:23:50;0.70;;;0.70;;
42036;SDS011;30340;52.004;5.908;2023-08-12T10:26:17;1.38;;;0.73;;
42036;SDS011;30340;52.004;5.908;2023-08-12T10:28:43;0.70;;;0.70;;
42036;SDS011;30340;52.004;5.908;2023-08-12T10:31:10;0.70;;;0.70;;
42036;SDS011;30340;52.004;5.908;2023-08-12T10:33:37;0.63;;;0.63;;
42036;SDS011;30340;52.004;5.908;2023-08-12T10:36:04;0.77;;;0.60;;
42036;SDS011;30340;52.004;5.908;2023-08-12T10:38:31;1.25;;;0.90;;
42036;SDS011;30340;52.004;5.908;2023-08-12T10:44:01;1.80;;;1.40;;
42036;SDS011;30340;52.004;5.908;2023-08-12T10:52:12;3.05;;;1.27;;
42036;SDS011;30340;52.004;5.908;2023-08-12T10:54:26;1.98;;;1.08;;
42036;SDS011;30340;52.004;5.908;2023-08-12T11:02:18;2.13;;;1.13;;
42036;SDS011;30340;52.004;5.908;2023-08-12T11:10:18;3.95;;;1.38;;
42036;SDS011;30340;52.004;5.908;2023-08-12T11:15:18;2.47;;;1.38;;
42036;SDS011;30340;52.004;5.908;2023-08-12T11:18:02;2.15;;;1.05;;
42036;SDS011;30340;52.004;5.908;2023-08-12T11:20:35;2.65;;;1.10;;
42036;SDS011;30340;52.004;5.908;2023-08-12T11:23:02;2.28;;;1.13;;
42036;SDS011;30340;52.004;5.908;2023-08-12T11:25:29;1.38;;;0.80;;
42036;SDS011;30340;52.004;5.908;2023-08-12T11:27:56;1.63;;;0.90;;
42036;SDS011;30340;52.004;5.908;2023-08-12T11:30:22;3.25;;;1.05;;
42036;SDS011;30340;52.004;5.908;2023-08-12T11:32:49;2.08;;;1.05;;
42036;SDS011;30340;52.004;5.908;2023-08-12T11:35:16;2.55;;;1.02;;
42036;SDS011;30340;52.004;5.908;2023-08-12T11:37:43;2.95;;;1.20;;
42036;SDS011;30340;52.004;5.908;2023-08-12T11:40:11;1.60;;;1.00;;
42036;SDS011;30340;52.004;5.908;2023-08-12T11:42:40;3.65;;;1.27;;
42036;SDS011;30340;52.004;5.908;2023-08-12T11:45:07;2.65;;;1.20;;
42036;SDS011;30340;52.004;5.908;2023-08-12T11:47:34;1.45;;;1.10;;
42036;SDS011;30340;52.004;5.908;2023-08-12T11:50:06;2.17;;;1.10;;
42036;SDS011;30340;52.004;5.908;2023-08-12T11:52:34;3.55;;;1.20;;
42036;SDS011;30340;52.004;5.908;2023-08-12T11:55:01;3.03;;;1.35;;
42036;SDS011;30340;52.004;5.908;2023-08-12T11:57:26;3.40;;;1.35;;
42036;SDS011;30340;52.004;5.908;2023-08-12T11:59:58;7.03;;;1.40;;
42036;SDS011;30340;52.004;5.908;2023-08-12T12:02:24;4.75;;;1.60;;
42036;SDS011;30340;52.004;5.908;2023-08-12T12:04:51;3.42;;;1.48;;
42036;SDS011;30340;52.004;5.908;2023-08-12T12:07:21;2.53;;;1.20;;
42036;SDS011;30340;52.004;5.908;2023-08-12T12:09:52;8.85;;;1.42;;
42036;SDS011;30340;52.004;5.908;2023-08-12T12:12:22;4.18;;;1.65;;
42036;SDS011;30340;52.004;5.908;2023-08-12T12:17:23;5.05;;;1.38;;
42036;SDS011;30340;52.004;5.908;2023-08-12T12:19:56;4.97;;;1.88;;
42036;SDS011;30340;52.004;5.908;2023-08-12T12:22:29;4.50;;;1.50;;
42036;SDS011;30340;52.004;5.908;2023-08-12T12:24:59;3.15;;;1.38;;
42036;SDS011;30340;52.004;5.908;2023-08-12T12:27:26;4.18;;;1.20;;
42036;SDS011;30340;52.004;5.908;2023-08-12T12:29:52;4.20;;;1.67;;
42036;SDS011;30340;52.004;5.908;2023-08-12T12:32:18;2.60;;;1.20;;
42036;SDS011;30340;52.004;5.908;2023-08-12T12:34:45;3.58;;;1.48;;
42036;SDS011;30340;52.004;5.908;2023-08-12T12:37:11;4.18;;;1.40;;
42036;SDS011;30340;52.004;5.908;2023-08-12T12:39:38;3.15;;;1.40;;
42036;SDS011;30340;52.004;5.908;2023-08-12T12:42:03;3.10;;;1.42;;
42036;SDS011;30340;52.004;5.908;2023-08-12T12:44:29;1.83;;;1.00;;
42036;SDS011;30340;52.004;5.908;2023-08-12T12:46:55;2.92;;;1.20;;
42036;SDS011;30340;52.004;5.908;2023-08-12T12:49:20;4.10;;;1.20;;
42036;SDS011;30340;52.004;5.908;2023-08-12T12:51:46;3.60;;;1.38;;
42036;SDS011;30340;52.004;5.908;2023-08-12T12:54:12;2.85;;;1.38;;
42036;SDS011;30340;52.004;5.908;2023-08-12T12:56:38;2.63;;;1.20;;
42036;SDS011;30340;52.004;5.908;2023-08-12T12:59:03;4.15;;;1.20;;
42036;SDS011;30340;52.004;5.908;2023-08-12T13:01:29;3.33;;;1.40;;
42036;SDS011;30340;52.004;5.908;2023-08-12T13:03:54;2.33;;;1.33;;
42036;SDS011;30340;52.004;5.908;2023-08-12T13:06:20;4.88;;;1.50;;
42036;SDS011;30340;52.004;5.908;2023-08-12T13:08:45;3.63;;;1.40;;
42036;SDS011;30340;52.004;5.908;2023-08-12T13:11:11;4.22;;;1.60;;
42036;SDS011;30340;52.004;5.908;2023-08-12T13:13:37;3.85;;;1.40;;
42036;SDS011;30340;52.004;5.908;2023-08-12T13:16:02;5.63;;;1.83;;
42036;SDS011;30340;52.004;5.908;2023-08-12T13:18:28;4.15;;;1.30;;
42036;SDS011;30340;52.004;5.908;2023-08-12T13:20:54;4.35;;;1.42;;
42036;SDS011;30340;52.004;5.908;2023-08-12T13:23:20;3.97;;;1.67;;
42036;SDS011;30340;52.004;5.908;2023-08-12T13:25:45;3.28;;;1.38;;
42036;SDS011;30340;52.004;5.908;2023-08-12T13:28:11;2.83;;;1.15;;
42036;SDS011;30340;52.004;5.908;2023-08-12T13:30:37;5.10;;;1.33;;
42036;SDS011;30340;52.004;5.908;2023-08-12T13:33:02;5.43;;;1.70;;
42036;SDS011;30340;52.004;5.908;2023-08-12T13:35:29;4.75;;;1.42;;
42036;SDS011;30340;52.004;5.908;2023-08-12T13:37:54;4.20;;;1.10;;
42036;SDS011;30340;52.004;5.908;2023-08-12T13:40:20;2.63;;;1.25;;
42036;SDS011;30340;52.004;5.908;2023-08-12T13:42:46;3.63;;;1.30;;
42036;SDS011;30340;52.004;5.908;2023-08-12T13:45:12;4.82;;;1.77;;
42036;SDS011;30340;52.004;5.908;2023-08-12T13:47:38;4.03;;;1.40;;
42036;SDS011;30340;52.004;5.908;2023-08-12T13:50:04;3.10;;;1.30;;
42036;SDS011;30340;52.004;5.908;2023-08-12T13:52:30;4.75;;;1.60;;
42036;SDS011;30340;52.004;5.908;2023-08-12T13:54:56;5.32;;;1.70;;
42036;SDS011;30340;52.004;5.908;2023-08-12T13:57:21;3.83;;;1.42;;
42036;SDS011;30340;52.004;5.908;2023-08-12T13:59:47;3.42;;;1.40;;
42036;SDS011;30340;52.004;5.908;2023-08-12T14:02:13;4.45;;;1.50;;
42036;SDS011;30340;52.004;5.908;2023-08-12T14:04:39;3.75;;;1.27;;
42036;SDS011;30340;52.004;5.908;2023-08-12T14:07:05;4.18;;;1.67;;
42036;SDS011;30340;52.004;5.908;2023-08-12T14:09:31;2.95;;;1.27;;
42036;SDS011;30340;52.004;5.908;2023-08-12T14:11:57;4.38;;;1.40;;
42036;SDS011;30340;52.004;5.908;2023-08-12T14:14:23;4.85;;;1.83;;
42036;SDS011;30340;52.004;5.908;2023-08-12T14:16:52;3.30;;;1.25;;
42036;SDS011;30340;52.004;5.908;2023-08-12T14:19:18;3.92;;;1.35;;
42036;SDS011;30340;52.004;5.908;2023-08-12T14:21:44;5.15;;;1.60;;
42036;SDS011;30340;52.004;5.908;2023-08-12T14:24:09;4.47;;;1.52;;
42036;SDS011;30340;52.004;5.908;2023-08-12T14:26:35;4.72;;;1.60;;
42036;SDS011;30340;52.004;5.908;2023-08-12T14:29:01;4.97;;;1.70;;
42036;SDS011;30340;52.004;5.908;2023-08-12T14:31:26;3.67;;;1.60;;
42036;SDS011;30340;52.004;5.908;2023-08-12T14:33:52;3.60;;;1.50;;
42036;SDS011;30340;52.004;5.908;2023-08-12T14:36:17;3.03;;;1.38;;
42036;SDS011;30340;52.004;5.908;2023-08-12T14:38:43;5.68;;;2.20;;
42036;SDS011;30340;52.004;5.908;2023-08-12T14:41:08;5.35;;;1.83;;
42036;SDS011;30340;52.004;5.908;2023-08-12T14:43:34;5.50;;;1.67;;
42036;SDS011;30340;52.004;5.908;2023-08-12T14:46:00;4.22;;;1.50;;
42036;SDS011;30340;52.004;5.908;2023-08-12T14:48:26;6.18;;;2.20;;
42036;SDS011;30340;52.004;5.908;2023-08-12T14:50:51;3.55;;;1.60;;
42036;SDS011;30340;52.004;5.908;2023-08-12T14:53:17;5.25;;;1.80;;
42036;SDS011;30340;52.004;5.908;2023-08-12T14:55:42;4.28;;;1.50;;
42036;SDS011;30340;52.004;5.908;2023-08-12T14:58:08;4.43;;;1.40;;
42036;SDS011;30340;52.004;5.908;2023-08-12T15:00:34;4.43;;;2.00;;
42036;SDS011;30340;52.004;5.908;2023-08-12T15:02:59;3.15;;;1.50;;
42036;SDS011;30340;52.004;5.908;2023-08-12T15:05:25;4.80;;;1.70;;
42036;SDS011;30340;52.004;5.908;2023-08-12T15:07:51;5.72;;;1.58;;
42036;SDS011;30340;52.004;5.908;2023-08-12T15:10:16;4.18;;;1.30;;